Time;durP1;ratioP1;P1;durP2;ratioP2;P2;SDS_P1;SDS_P2;PMS_P1;PMS_P2;Temp;Humidity;BMP_temperature;BMP_pressure;BME280_temperature;BME280_humidity;BME280_pressure;Samples;Min_cycle;Max_cycle;Signal;HPM_P1;HPM_P2
2022/04/23 00:00:29;;;;;;;6.88;3.65;;;11.00;99.90;;;;;;4958235;28;20031;-76
2022/04/23 00:02:59;;;;;;;7.13;3.90;;;11.00;99.90;;;;;;4962075;28;20026;-76
2022/04/23 00:05:25;;;;;;;4.72;3.55;;;11.00;99.90;;;;;;4965431;28;20050;-76
2022/04/23 00:07:51;;;;;;;5.60;4.03;;;10.90;99.90;;;;;;4962471;28;20810;-76
2022/04/23 00:10:17;;;;;;;5.82;4.03;;;10.90;99.90;;;;;;4958374;28;20035;-76
2022/04/23 00:12:46;;;;;;;6.10;4.13;;;10.90;99.90;;;;;;4964137;28;20106;-76
2022/04/23 00:15:12;;;;;;;7.07;3.85;;;10.80;99.90;;;;;;4940116;28;20039;-76
2022/04/23 00:17:37;;;;;;;4.68;3.92;;;10.70;99.90;;;;;;4963688;28;20035;-76
2022/04/23 00:20:05;;;;;;;5.85;3.78;;;10.70;99.90;;;;;;4943246;28;20029;-76
2022/04/23 00:22:31;;;;;;;6.28;3.58;;;10.70;99.90;;;;;;4948722;28;20092;-76
2022/04/23 00:24:57;;;;;;;6.13;3.20;;;10.70;99.90;;;;;;4963041;28;20023;-77
2022/04/23 00:27:23;;;;;;;5.63;3.58;;;10.60;99.90;;;;;;4963019;28;20027;-76
2022/04/23 00:29:49;;;;;;;4.90;3.33;;;10.50;99.90;;;;;;4962733;28;20106;-76
2022/04/23 00:32:14;;;;;;;5.85;3.47;;;10.50;99.90;;;;;;4956191;28;20062;-76
2022/04/23 00:34:40;;;;;;;7.88;4.03;;;10.50;99.90;;;;;;4959576;28;20914;-75
2022/04/23 00:37:06;;;;;;;5.80;4.10;;;10.40;99.90;;;;;;4963249;28;20503;-76
2022/04/23 00:39:32;;;;;;;6.28;3.90;;;10.40;99.90;;;;;;4961476;28;20023;-76
2022/04/23 00:42:00;;;;;;;7.40;4.38;;;10.40;99.90;;;;;;4945618;28;20027;-77
2022/04/23 00:44:26;;;;;;;5.72;4.00;;;10.30;99.90;;;;;;4959699;28;20019;-77
2022/04/23 00:46:52;;;;;;;5.97;4.00;;;10.20;99.90;;;;;;4961870;28;20468;-76
2022/04/23 00:49:18;;;;;;;9.10;3.97;;;10.20;99.90;;;;;;4944085;28;20097;-76
2022/04/23 00:51:44;;;;;;;7.38;4.07;;;10.20;99.90;;;;;;4959892;28;20086;-76
2022/04/23 00:54:10;;;;;;;6.78;4.53;;;10.20;99.90;;;;;;4958663;28;20326;-79
2022/04/23 00:56:37;;;;;;;5.65;3.67;;;10.10;99.90;;;;;;4965615;28;20086;-78
2022/04/23 00:59:05;;;;;;;7.15;4.38;;;10.10;99.90;;;;;;4945681;28;20030;-77
2022/04/23 01:01:30;;;;;;;7.47;3.97;;;10.00;99.90;;;;;;4961387;28;20514;-76
2022/04/23 01:03:57;;;;;;;8.77;4.38;;;10.00;99.90;;;;;;4957787;28;20032;-75
2022/04/23 01:06:24;;;;;;;6.35;3.97;;;10.00;99.90;;;;;;4957913;28;20106;-76
2022/04/23 01:08:50;;;;;;;6.50;4.20;;;9.90;99.90;;;;;;4962503;28;20446;-76
2022/04/23 01:11:16;;;;;;;6.07;4.25;;;10.00;99.90;;;;;;4958398;28;20032;-76
2022/04/23 01:13:43;;;;;;;6.10;4.45;;;9.90;99.90;;;;;;4958950;28;20445;-76
2022/04/23 01:16:09;;;;;;;7.07;4.80;;;10.00;99.90;;;;;;4959509;28;20057;-76
2022/04/23 01:18:39;;;;;;;6.70;4.95;;;10.00;99.90;;;;;;4960719;28;20058;-76
2022/04/23 01:21:05;;;;;;;6.28;4.88;;;9.90;99.90;;;;;;4961664;28;20023;-75
2022/04/23 01:23:31;;;;;;;8.40;4.88;;;9.80;99.90;;;;;;4938146;28;20030;-75
2022/04/23 01:25:58;;;;;;;6.47;5.53;;;9.70;99.90;;;;;;4959502;28;20118;-75
2022/04/23 01:28:25;;;;;;;7.18;5.45;;;9.80;99.90;;;;;;4959887;28;20495;-77
2022/04/23 01:30:53;;;;;;;7.65;5.15;;;9.70;99.90;;;;;;4959721;28;20031;-76
2022/04/23 01:33:19;;;;;;;8.75;5.80;;;9.70;99.90;;;;;;4952925;28;20121;-76
2022/04/23 01:35:45;;;;;;;7.72;5.13;;;9.70;99.90;;;;;;4954291;28;20058;-76
2022/04/23 01:38:11;;;;;;;7.88;5.65;;;9.60;99.90;;;;;;4958055;28;20059;-77
2022/04/23 01:40:37;;;;;;;9.63;5.53;;;9.60;99.90;;;;;;4959509;28;20046;-75
2022/04/23 01:43:03;;;;;;;10.90;5.80;;;9.60;99.90;;;;;;4956160;28;20018;-75
2022/04/23 01:45:30;;;;;;;10.20;6.20;;;9.50;99.90;;;;;;4942253;28;20043;-75
2022/04/23 01:47:55;;;;;;;8.98;5.75;;;9.50;99.90;;;;;;4958314;28;20038;-78
2022/04/23 01:50:22;;;;;;;8.82;5.93;;;9.40;99.90;;;;;;4958270;28;20086;-76
2022/04/23 01:52:48;;;;;;;8.75;6.00;;;9.40;99.90;;;;;;4956802;28;20415;-76
2022/04/23 01:55:14;;;;;;;8.40;6.10;;;9.40;99.90;;;;;;4958340;28;20074;-76
2022/04/23 01:57:40;;;;;;;9.32;6.25;;;9.40;99.90;;;;;;4957890;28;20035;-77
2022/04/23 02:00:11;;;;;;;8.80;6.40;;;9.40;99.90;;;;;;4958901;28;20031;-76
2022/04/23 02:02:39;;;;;;;12.20;6.70;;;9.30;99.90;;;;;;4944246;28;20109;-76
2022/04/23 02:05:07;;;;;;;7.88;6.45;;;9.30;99.90;;;;;;4972799;28;20023;-76
2022/04/23 02:07:40;;;;;;;9.10;6.10;;;9.20;99.90;;;;;;4958478;28;20046;-76
2022/04/23 02:10:07;;;;;;;10.63;6.38;;;9.20;99.90;;;;;;4960294;28;20031;-78
2022/04/23 02:12:33;;;;;;;9.07;6.28;;;9.20;99.90;;;;;;4959414;28;20076;-78
2022/04/23 02:15:00;;;;;;;11.90;7.45;;;9.20;99.90;;;;;;4956439;28;20427;-78
2022/04/23 02:17:40;;;;;;;11.02;7.07;;;9.20;99.90;;;;;;4957973;28;20028;-78
2022/04/23 02:20:11;;;;;;;13.77;7.32;;;9.20;99.90;;;;;;4961311;28;21585;-78
2022/04/23 02:22:38;;;;;;;13.63;7.57;;;9.20;99.90;;;;;;4958459;28;20121;-78
2022/04/23 02:25:07;;;;;;;12.00;7.72;;;9.20;99.90;;;;;;4957748;28;20042;-78
2022/04/23 02:27:47;;;;;;;13.45;7.93;;;9.10;99.90;;;;;;4941322;28;20034;-77
2022/04/23 02:30:16;;;;;;;12.80;8.38;;;9.10;99.90;;;;;;4961948;28;20031;-78
2022/04/23 02:32:43;;;;;;;16.65;8.90;;;9.00;99.90;;;;;;4953849;28;20523;-79
2022/04/23 02:35:10;;;;;;;9.82;7.28;;;9.00;99.90;;;;;;4958177;28;20029;-78
2022/04/23 02:37:36;;;;;;;13.45;8.13;;;9.00;99.90;;;;;;4940606;28;20027;-80
2022/04/23 02:40:07;;;;;;;15.77;8.68;;;9.00;99.90;;;;;;4958085;28;20034;-77
2022/04/23 02:42:33;;;;;;;15.20;8.48;;;9.00;99.90;;;;;;4957980;28;20042;-76
2022/04/23 02:45:01;;;;;;;13.05;8.68;;;8.90;99.90;;;;;;4959415;28;20451;-76
2022/04/23 02:47:29;;;;;;;15.30;9.15;;;8.90;99.90;;;;;;4956321;28;20062;-75
2022/04/23 02:49:55;;;;;;;14.70;9.35;;;8.80;99.90;;;;;;4974634;28;20030;-76
2022/04/23 02:52:20;;;;;;;15.38;9.75;;;8.80;99.90;;;;;;4941979;28;20123;-76
2022/04/23 02:54:46;;;;;;;17.52;8.98;;;8.80;99.90;;;;;;4956180;28;20787;-76
2022/04/23 02:57:12;;;;;;;12.27;8.57;;;8.80;99.90;;;;;;4960251;28;20031;-77
2022/04/23 02:59:41;;;;;;;14.32;10.20;;;8.80;99.90;;;;;;4958616;28;20031;-76
2022/04/23 03:02:06;;;;;;;15.80;9.88;;;8.70;99.90;;;;;;4958300;28;20023;-76
2022/04/23 03:04:32;;;;;;;14.52;9.55;;;8.70;99.90;;;;;;4957271;28;20030;-76
2022/04/23 03:06:58;;;;;;;14.80;9.18;;;8.70;99.90;;;;;;4953409;28;20155;-76
2022/04/23 03:09:24;;;;;;;16.33;9.65;;;8.70;99.90;;;;;;4956792;28;20110;-76
2022/04/23 03:11:49;;;;;;;17.45;10.07;;;8.70;99.90;;;;;;4963389;28;20030;-76
2022/04/23 03:14:15;;;;;;;14.40;9.52;;;8.70;99.90;;;;;;4960875;28;20038;-76
2022/04/23 03:16:41;;;;;;;16.60;10.40;;;8.70;99.90;;;;;;4961879;28;20066;-76
2022/04/23 03:19:07;;;;;;;16.30;10.25;;;8.70;99.90;;;;;;4963353;28;20074;-75
2022/04/23 03:21:32;;;;;;;16.70;10.63;;;8.60;99.90;;;;;;4961132;28;20031;-75
2022/04/23 03:23:58;;;;;;;16.75;10.00;;;8.60;99.90;;;;;;4960932;28;20061;-77
2022/04/23 03:26:24;;;;;;;16.77;10.35;;;8.60;99.90;;;;;;4977851;28;20141;-77
2022/04/23 03:28:50;;;;;;;17.30;9.95;;;8.60;99.90;;;;;;4966796;28;20601;-77
2022/04/23 03:31:16;;;;;;;15.25;9.73;;;8.60;99.90;;;;;;4964478;28;20165;-77
2022/04/23 03:33:41;;;;;;;17.10;11.15;;;8.60;99.90;;;;;;4962118;28;20527;-78
2022/04/23 03:36:07;;;;;;;18.52;11.02;;;8.60;99.90;;;;;;4959980;28;20039;-78
2022/04/23 03:38:33;;;;;;;17.33;11.55;;;8.50;99.90;;;;;;4966034;28;20027;-78
2022/04/23 03:40:59;;;;;;;17.05;10.95;;;8.50;99.90;;;;;;4962091;28;20550;-77
2022/04/23 03:43:25;;;;;;;18.95;11.32;;;8.50;99.90;;;;;;4960931;28;20086;-78
2022/04/23 03:45:52;;;;;;;17.17;11.32;;;8.50;99.90;;;;;;4961529;28;20122;-78
2022/04/23 03:48:18;;;;;;;18.30;12.13;;;8.50;99.90;;;;;;4949130;28;20043;-79
2022/04/23 03:50:43;;;;;;;20.48;12.13;;;8.50;99.90;;;;;;4965742;28;20050;-78
2022/04/23 03:53:09;;;;;;;20.58;11.68;;;8.40;99.90;;;;;;4963913;28;20081;-76
2022/04/23 03:55:36;;;;;;;17.00;11.60;;;8.40;99.90;;;;;;4960969;28;20510;-76
2022/04/23 03:58:02;;;;;;;21.55;12.80;;;8.40;99.90;;;;;;4965392;28;20039;-76
2022/04/23 04:00:28;;;;;;;20.67;12.63;;;8.40;99.90;;;;;;4966199;28;20031;-76
2022/04/23 04:02:55;;;;;;;22.02;13.57;;;8.30;99.90;;;;;;4964797;28;20031;-76
2022/04/23 04:05:22;;;;;;;20.38;12.88;;;8.30;99.90;;;;;;4959579;28;20126;-76
2022/04/23 04:07:48;;;;;;;23.65;13.38;;;8.30;99.90;;;;;;4958549;28;20082;-76
2022/04/23 04:10:17;;;;;;;20.83;12.90;;;8.30;99.90;;;;;;4944443;28;20106;-76
2022/04/23 04:12:43;;;;;;;18.63;12.80;;;8.20;99.90;;;;;;4941870;28;20041;-77
2022/04/23 04:15:11;;;;;;;21.10;13.32;;;8.20;99.90;;;;;;4936204;28;20028;-76
2022/04/23 04:17:38;;;;;;;19.42;12.38;;;8.20;99.90;;;;;;4962709;28;20544;-76
2022/04/23 04:20:08;;;;;;;20.95;13.63;;;8.20;99.90;;;;;;4961711;28;20027;-76
2022/04/23 04:22:35;;;;;;;21.90;13.25;;;8.30;99.90;;;;;;4962953;28;20110;-77
2022/04/23 04:25:02;;;;;;;22.73;14.10;;;8.30;99.90;;;;;;4959623;28;20023;-76
2022/04/23 04:27:28;;;;;;;17.75;12.52;;;8.30;99.90;;;;;;4943229;28;20543;-75
2022/04/23 04:29:53;;;;;;;22.10;13.77;;;8.20;99.90;;;;;;4961297;28;20146;-75
2022/04/23 04:32:20;;;;;;;23.33;14.60;;;8.30;99.90;;;;;;4956697;28;20098;-76
2022/04/23 04:34:46;;;;;;;21.33;13.68;;;8.30;99.90;;;;;;4957292;28;20137;-76
2022/04/23 04:37:13;;;;;;;24.38;14.88;;;8.30;99.90;;;;;;4957080;28;20110;-76
2022/04/23 04:39:41;;;;;;;20.58;14.30;;;8.30;99.90;;;;;;4958423;28;20035;-75
2022/04/23 04:42:08;;;;;;;25.30;15.10;;;8.30;99.90;;;;;;4962417;28;20143;-79
2022/04/23 04:44:34;;;;;;;20.63;13.82;;;8.30;99.90;;;;;;4961201;28;20019;-79
2022/04/23 04:47:00;;;;;;;20.83;13.98;;;8.40;99.90;;;;;;4964001;28;20028;-79
2022/04/23 04:49:26;;;;;;;21.98;13.85;;;8.40;99.90;;;;;;4960977;28;20053;-78
2022/04/23 04:51:52;;;;;;;20.33;14.02;;;8.40;99.90;;;;;;4962561;28;20468;-78
2022/04/23 04:54:19;;;;;;;21.95;14.40;;;8.40;99.90;;;;;;4960812;28;20046;-78
2022/04/23 04:56:51;;;;;;;23.92;14.07;;;8.40;99.90;;;;;;4962196;28;20031;-80
2022/04/23 04:59:20;;;;;;;22.48;14.70;;;8.50;99.90;;;;;;4959924;28;20035;-78
2022/04/23 05:01:47;;;;;;;24.13;14.10;;;8.50;99.90;;;;;;4945663;28;20054;-79
2022/04/23 05:04:12;;;;;;;23.33;14.68;;;8.50;99.90;;;;;;4958612;28;20464;-78
2022/04/23 05:06:38;;;;;;;21.08;13.00;;;8.50;99.90;;;;;;4960627;28;20039;-79
2022/04/23 05:09:04;;;;;;;18.60;13.60;;;8.50;99.90;;;;;;4977517;28;20420;-79
2022/04/23 05:11:30;;;;;;;20.92;13.95;;;8.60;99.90;;;;;;4964326;28;20046;-81
2022/04/23 05:13:55;;;;;;;21.35;14.15;;;8.60;99.90;;;;;;4971538;28;20087;-79
2022/04/23 05:16:21;;;;;;;18.27;12.93;;;8.60;99.90;;;;;;4963240;28;20027;-77
2022/04/23 05:18:47;;;;;;;18.38;13.45;;;8.70;99.90;;;;;;4959773;28;20050;-77
2022/04/23 05:21:15;;;;;;;19.58;12.93;;;8.70;99.90;;;;;;4958990;28;20074;-77
2022/04/23 05:23:40;;;;;;;19.70;12.82;;;8.70;99.90;;;;;;4941738;28;20033;-80
2022/04/23 05:26:06;;;;;;;22.10;14.48;;;8.80;99.90;;;;;;4947091;28;20348;-78
2022/04/23 05:28:34;;;;;;;17.70;12.63;;;8.80;99.90;;;;;;4957106;28;20039;-79
2022/04/23 05:31:00;;;;;;;20.95;12.82;;;8.90;99.90;;;;;;4963742;28;20026;-79
2022/04/23 05:33:26;;;;;;;20.40;13.25;;;8.90;99.90;;;;;;4957709;28;20488;-79
2022/04/23 05:35:52;;;;;;;22.20;13.82;;;9.00;99.90;;;;;;4957415;28;20113;-80
2022/04/23 05:38:21;;;;;;;17.77;12.93;;;9.00;99.90;;;;;;4956761;28;20106;-77
2022/04/23 05:40:48;;;;;;;18.40;12.98;;;9.10;99.90;;;;;;4959451;28;20111;-77
2022/04/23 05:43:14;;;;;;;19.65;12.95;;;9.20;99.90;;;;;;4972497;28;20038;-77
2022/04/23 05:45:40;;;;;;;18.90;12.20;;;9.20;99.90;;;;;;4959979;28;20042;-77
2022/04/23 05:48:06;;;;;;;20.00;13.30;;;9.20;99.90;;;;;;4958522;28;20035;-77
2022/04/23 05:50:32;;;;;;;19.42;12.15;;;9.30;99.90;;;;;;4957265;28;20042;-77
2022/04/23 05:52:58;;;;;;;18.45;12.20;;;9.30;99.90;;;;;;4955865;28;20581;-77
2022/04/23 05:55:24;;;;;;;18.40;13.00;;;9.40;99.90;;;;;;4957941;28;20455;-76
2022/04/23 05:57:50;;;;;;;18.15;12.18;;;9.40;99.90;;;;;;4955988;28;20463;-76
2022/04/23 06:00:16;;;;;;;16.33;12.88;;;9.40;99.90;;;;;;4959059;28;20447;-76
2022/04/23 06:02:41;;;;;;;17.50;12.35;;;9.40;99.90;;;;;;4938758;28;20038;-76
2022/04/23 06:05:08;;;;;;;18.40;12.35;;;9.50;99.90;;;;;;4938537;28;20026;-75
2022/04/23 06:07:34;;;;;;;15.82;11.75;;;9.60;99.90;;;;;;4953157;28;20073;-77
2022/04/23 06:10:00;;;;;;;16.75;12.05;;;9.60;99.90;;;;;;4935462;28;20422;-73
2022/04/23 06:12:26;;;;;;;19.70;12.77;;;9.70;99.90;;;;;;4934596;28;20092;-76
2022/04/23 06:14:52;;;;;;;16.15;11.27;;;9.70;99.90;;;;;;4953200;28;20066;-73
2022/04/23 06:17:28;;;;;;;13.40;11.20;;;9.80;99.90;;;;;;4954368;28;20038;-75
2022/04/23 06:19:55;;;;;;;15.07;11.00;;;9.80;99.90;;;;;;4972912;28;20057;-74
2022/04/23 06:22:24;;;;;;;15.45;11.38;;;9.90;99.90;;;;;;4952787;28;20033;-73
2022/04/23 06:24:51;;;;;;;14.77;10.50;;;9.90;99.90;;;;;;4959172;28;20138;-75
2022/04/23 06:27:17;;;;;;;16.17;10.88;;;10.00;99.90;;;;;;4959702;28;20459;-75
2022/04/23 06:29:43;;;;;;;13.32;10.43;;;10.10;99.90;;;;;;4940447;28;20035;-77
2022/04/23 06:32:09;;;;;;;13.68;10.43;;;10.20;99.90;;;;;;4958956;28;20041;-76
2022/04/23 06:34:37;;;;;;;13.77;10.30;;;10.20;99.90;;;;;;4956642;28;20118;-74
2022/04/23 06:37:03;;;;;;;12.85;9.88;;;10.30;99.90;;;;;;4955451;28;20031;-74
2022/04/23 06:39:29;;;;;;;12.10;9.57;;;10.30;99.90;;;;;;4953086;28;20053;-75
2022/04/23 06:41:55;;;;;;;11.40;9.40;;;10.40;99.90;;;;;;4954995;28;20058;-74
2022/04/23 06:44:20;;;;;;;12.23;9.35;;;10.50;99.90;;;;;;4955541;28;20110;-75
2022/04/23 06:46:46;;;;;;;12.63;9.95;;;10.50;99.90;;;;;;4944419;28;20050;-72
2022/04/23 06:49:11;;;;;;;13.43;10.32;;;10.50;99.90;;;;;;4967608;28;20054;-76
2022/04/23 06:51:37;;;;;;;12.27;9.40;;;10.60;99.90;;;;;;4956417;28;20118;-77
2022/04/23 06:54:04;;;;;;;12.15;10.18;;;10.60;99.90;;;;;;4958474;28;20522;-73
2022/04/23 06:56:30;;;;;;;11.48;9.27;;;10.70;99.90;;;;;;4964711;28;20027;-73
2022/04/23 06:58:56;;;;;;;13.10;9.45;;;10.80;99.90;;;;;;4946066;28;20035;-77
2022/04/23 07:01:22;;;;;;;11.95;9.15;;;10.80;99.90;;;;;;4951438;28;20030;-73
2022/04/23 07:03:48;;;;;;;13.45;9.85;;;10.80;99.90;;;;;;4948756;28;20037;-73
2022/04/23 07:06:15;;;;;;;10.55;9.07;;;10.90;99.90;;;;;;4955005;28;20058;-75
2022/04/23 07:08:44;;;;;;;11.05;9.13;;;10.90;99.90;;;;;;4968670;28;20135;-72
2022/04/23 07:11:10;;;;;;;14.77;9.32;;;11.00;99.90;;;;;;4951217;28;20031;-73
2022/04/23 07:13:36;;;;;;;11.75;9.20;;;11.00;99.70;;;;;;4960606;28;20098;-74
2022/04/23 07:16:05;;;;;;;10.57;8.65;;;11.10;99.60;;;;;;4956631;28;20027;-73
2022/04/23 07:18:32;;;;;;;10.50;8.95;;;11.20;99.40;;;;;;4957576;28;20082;-73
2022/04/23 07:20:58;;;;;;;11.63;8.60;;;11.20;98.60;;;;;;4956415;28;20031;-75
2022/04/23 07:26:08;;;;;;;9.95;7.72;;;11.30;97.50;;;;;;4955742;28;20042;-75
2022/04/23 07:28:37;;;;;;;9.32;6.88;;;11.40;97.30;;;;;;4957105;28;20046;-75
2022/04/23 07:31:04;;;;;;;10.48;7.78;;;11.40;97.40;;;;;;4954232;28;20513;-75
2022/04/23 07:38:58;;;;;;;8.82;6.82;;;11.60;96.30;;;;;;4960958;28;20087;-77
2022/04/23 07:41:27;;;;;;;9.55;7.00;;;11.80;96.20;;;;;;4953589;28;20401;-77
2022/04/23 07:43:53;;;;;;;11.75;7.03;;;11.80;95.70;;;;;;4951871;28;20024;-76
2022/04/23 07:46:19;;;;;;;8.70;6.55;;;11.80;95.00;;;;;;4953783;28;20026;-77
2022/04/23 07:48:45;;;;;;;6.68;5.90;;;11.90;94.70;;;;;;4959408;28;20038;-76
2022/04/23 07:51:13;;;;;;;7.45;5.70;;;11.90;93.90;;;;;;4954155;28;20035;-78
2022/04/23 07:53:38;;;;;;;6.97;5.25;;;12.00;93.70;;;;;;4939659;28;20095;-76
2022/04/23 07:56:04;;;;;;;7.00;5.28;;;12.10;93.30;;;;;;4939833;28;20118;-75
2022/04/23 07:58:30;;;;;;;7.13;6.30;;;12.20;93.50;;;;;;4948098;28;20050;-75
2022/04/23 08:00:56;;;;;;;7.22;5.68;;;12.20;92.70;;;;;;4947823;28;20094;-74
2022/04/23 08:03:22;;;;;;;8.32;5.57;;;12.20;92.20;;;;;;4947565;28;20031;-74
2022/04/23 08:05:47;;;;;;;6.20;5.50;;;12.20;92.50;;;;;;4938168;28;20309;-74
2022/04/23 08:08:15;;;;;;;6.15;5.40;;;12.30;92.60;;;;;;4933108;28;20086;-75
2022/04/23 08:10:41;;;;;;;6.57;5.68;;;12.40;92.10;;;;;;4929919;28;20114;-75
2022/04/23 08:13:06;;;;;;;7.35;5.70;;;12.40;91.60;;;;;;4947202;28;20089;-76
2022/04/23 08:15:35;;;;;;;6.53;5.40;;;12.50;91.60;;;;;;4948781;28;20162;-73
2022/04/23 08:18:01;;;;;;;8.70;5.50;;;12.50;91.50;;;;;;4951618;28;20157;-73
2022/04/23 08:20:30;;;;;;;5.80;4.88;;;12.60;90.80;;;;;;4951210;28;20034;-74
2022/04/23 08:22:56;;;;;;;5.68;4.63;;;12.60;88.70;;;;;;4948059;28;20038;-76
2022/04/23 08:25:22;;;;;;;7.10;4.32;;;12.60;87.90;;;;;;4972525;28;20035;-77
2022/04/23 08:27:52;;;;;;;6.15;4.47;;;12.70;89.10;;;;;;4960908;28;20023;-76
2022/04/23 08:30:34;;;;;;;5.03;4.47;;;12.80;90.00;;;;;;4940867;28;20439;-79
2022/04/23 08:33:00;;;;;;;5.10;4.55;;;12.90;89.00;;;;;;4959307;28;20367;-77
2022/04/23 08:35:26;;;;;;;4.68;4.07;;;13.00;88.80;;;;;;4954714;28;20106;-77
2022/04/23 08:37:52;;;;;;;8.05;4.18;;;13.00;88.30;;;;;;4958443;28;20185;-77
2022/04/23 08:40:18;;;;;;;5.80;3.85;;;13.10;87.60;;;;;;4958497;28;20460;-77
2022/04/23 08:42:44;;;;;;;5.10;4.30;;;13.10;86.20;;;;;;4953607;28;20034;-78
2022/04/23 08:45:12;;;;;;;4.63;4.13;;;13.20;85.70;;;;;;4954739;28;20045;-75
2022/04/23 08:47:44;;;;;;;4.53;4.10;;;13.20;85.90;;;;;;4961870;28;20054;-77
2022/04/23 08:50:10;;;;;;;4.60;4.15;;;13.30;85.40;;;;;;4947779;28;20067;-75
2022/04/23 08:52:36;;;;;;;4.93;3.97;;;13.40;84.60;;;;;;4955406;28;20046;-77
2022/04/23 08:55:06;;;;;;;4.93;4.07;;;13.40;81.00;;;;;;4959312;28;20031;-78
2022/04/23 08:57:33;;;;;;;4.00;3.58;;;13.50;80.90;;;;;;4960670;28;20451;-78
2022/04/23 08:59:59;;;;;;;3.90;3.55;;;13.60;78.90;;;;;;4945149;28;20039;-75
2022/04/23 09:02:26;;;;;;;4.35;3.88;;;13.60;78.20;;;;;;4939582;28;20057;-76
2022/04/23 09:04:56;;;;;;;4.57;3.92;;;13.70;78.40;;;;;;4958442;28;20050;-78
2022/04/23 09:07:24;;;;;;;4.45;3.72;;;13.80;77.00;;;;;;4966601;28;20059;-76
2022/04/23 09:09:51;;;;;;;5.35;3.75;;;13.80;76.40;;;;;;4959028;28;20039;-77
2022/04/23 09:12:18;;;;;;;4.78;3.80;;;13.90;75.80;;;;;;4977020;28;20384;-77
2022/04/23 09:14:48;;;;;;;4.80;3.75;;;13.90;75.60;;;;;;4960448;28;165243;-77
2022/04/23 09:25:48;;;;;;;5.20;3.83;;;14.00;71.90;;;;;;4953969;28;20182;-79
2022/04/23 09:28:19;;;;;;;4.18;3.72;;;14.00;72.10;;;;;;4955521;28;20118;-77
2022/04/23 09:30:46;;;;;;;4.72;3.15;;;14.00;71.90;;;;;;4957699;28;20031;-76
2022/04/23 09:33:12;;;;;;;4.47;3.85;;;14.10;72.00;;;;;;4954895;28;20078;-77
2022/04/23 09:35:55;;;;;;;8.27;4.50;;;14.10;71.60;;;;;;4954091;28;20097;-77
2022/04/23 09:38:22;;;;;;;4.20;3.53;;;14.10;70.00;;;;;;4937120;28;20062;-78
2022/04/23 09:40:59;;;;;;;4.22;3.47;;;14.10;70.40;;;;;;4956797;28;20046;-77
2022/04/23 09:43:30;;;;;;;4.03;3.53;;;14.20;71.00;;;;;;4964399;28;20019;-74
2022/04/23 09:46:14;;;;;;;4.47;3.70;;;14.30;70.70;;;;;;4954427;28;20062;-77
2022/04/23 09:48:43;;;;;;;5.03;3.67;;;14.40;69.30;;;;;;4958638;28;20657;-76
2022/04/23 09:51:24;;;;;;;6.25;4.03;;;14.50;69.90;;;;;;4960461;28;20126;-76
2022/04/23 09:53:53;;;;;;;4.25;3.65;;;14.50;68.80;;;;;;4946830;28;20054;-75
2022/04/23 09:56:24;;;;;;;6.25;3.58;;;14.50;67.30;;;;;;4954451;28;20304;-77
2022/04/23 09:58:50;;;;;;;4.07;3.40;;;14.50;67.60;;;;;;4956896;28;20475;-78
2022/04/23 10:01:20;;;;;;;5.10;3.78;;;14.60;67.10;;;;;;4941415;28;20138;-75
2022/04/23 10:03:49;;;;;;;6.00;3.67;;;14.70;66.00;;;;;;4956315;28;20082;-75
2022/04/23 10:06:17;;;;;;;4.90;3.88;;;14.80;66.40;;;;;;4960815;28;20037;-79
2022/04/23 10:08:47;;;;;;;8.60;4.50;;;14.90;66.80;;;;;;4948936;28;20199;-78
2022/04/23 10:11:40;;;;;;;5.20;3.72;;;14.90;67.80;;;;;;4956327;28;20035;-77
2022/04/23 10:14:06;;;;;;;7.65;4.20;;;15.00;69.70;;;;;;4898027;29;20044;-78
2022/04/23 10:16:33;;;;;;;4.22;3.83;;;15.20;65.80;;;;;;4908557;29;20044;-76
2022/04/23 10:19:01;;;;;;;4.15;3.40;;;15.30;66.80;;;;;;4912492;29;20036;-79
2022/04/23 10:21:50;;;;;;;4.78;3.70;;;15.40;69.00;;;;;;4913637;29;20064;-76
2022/04/23 10:24:42;;;;;;;5.47;4.03;;;15.60;68.30;;;;;;4912109;29;20055;-78
2022/04/23 10:27:10;;;;;;;5.32;3.90;;;15.60;64.40;;;;;;4916905;29;20028;-78
2022/04/23 10:29:36;;;;;;;5.55;3.97;;;15.60;64.80;;;;;;4910135;29;20092;-80
2022/04/23 10:32:12;;;;;;;4.63;4.03;;;15.70;64.60;;;;;;4896158;29;20038;-77
2022/04/23 10:34:39;;;;;;;5.05;3.88;;;15.70;64.00;;;;;;4917377;28;20527;-77
2022/04/23 10:37:22;;;;;;;5.05;3.45;;;15.80;63.50;;;;;;4901578;29;20382;-75
2022/04/23 10:39:51;;;;;;;4.68;3.92;;;16.00;63.90;;;;;;4928919;28;20029;-75
2022/04/23 10:42:19;;;;;;;4.70;3.92;;;16.10;63.20;;;;;;4930768;28;20148;-76
2022/04/23 10:44:46;;;;;;;4.07;3.33;;;16.20;62.10;;;;;;4920286;29;20052;-78
2022/04/23 10:47:32;;;;;;;4.18;3.70;;;16.30;61.70;;;;;;4907536;29;20075;-79
2022/04/23 10:50:21;;;;;;;4.75;3.60;;;16.20;60.50;;;;;;4895035;29;20020;-79
2022/04/23 10:52:51;;;;;;;4.45;4.05;;;16.30;61.40;;;;;;4956739;28;20094;-80
2022/04/23 10:55:17;;;;;;;4.82;4.20;;;16.40;61.20;;;;;;4960543;28;20193;-79
2022/04/23 10:57:51;;;;;;;4.18;3.30;;;16.50;61.10;;;;;;4956919;28;20190;-79
2022/04/23 11:00:30;;;;;;;4.28;3.88;;;16.60;61.80;;;;;;4940633;28;20022;-78
2022/04/23 11:03:10;;;;;;;4.10;3.70;;;16.80;60.20;;;;;;4956002;28;20031;-79
2022/04/23 11:14:39;;;;;;;8.68;5.50;;;20.30;56.70;;;;;;4958241;28;20056;-78
2022/04/23 11:17:07;;;;;;;6.72;5.30;;;21.60;51.00;;;;;;4954830;28;20058;-78
2022/04/23 11:19:32;;;;;;;7.93;5.85;;;22.70;48.70;;;;;;4954293;28;20107;-75
2022/04/23 11:21:58;;;;;;;4.72;3.33;;;24.30;47.00;;;;;;4956667;28;20027;-75
2022/04/23 11:24:24;;;;;;;4.43;4.03;;;25.60;43.40;;;;;;4956573;28;20102;-77
2022/04/23 11:26:51;;;;;;;5.50;4.25;;;25.70;42.40;;;;;;4955056;28;20988;-75
2022/04/23 11:29:21;;;;;;;4.28;3.85;;;25.40;40.60;;;;;;4956033;28;20061;-76
2022/04/23 11:31:51;;;;;;;4.57;3.72;;;24.60;40.50;;;;;;4959417;28;20050;-75
2022/04/23 11:34:17;;;;;;;4.53;3.80;;;23.60;42.10;;;;;;4964486;28;20026;-75
2022/04/23 11:36:43;;;;;;;5.25;3.90;;;23.70;41.60;;;;;;4975556;28;20116;-77
2022/04/23 11:39:12;;;;;;;4.30;3.90;;;24.10;41.90;;;;;;4948167;28;20070;-76
2022/04/23 11:41:41;;;;;;;3.60;3.25;;;25.00;41.30;;;;;;4962139;28;20027;-75
2022/04/23 11:44:18;;;;;;;4.25;3.83;;;24.90;40.30;;;;;;4961359;28;21113;-76
2022/04/23 11:46:48;;;;;;;4.43;3.65;;;24.40;38.90;;;;;;4947093;28;20082;-73
2022/04/23 11:49:29;;;;;;;;;;;24.50;40.70;;;;;;4960172;28;20051;-72
2022/04/23 11:52:02;;;;;;;5.15;3.63;;;24.10;40.20;;;;;;4959308;28;19977;-73
2022/04/23 11:54:38;;;;;;;7.40;3.90;;;23.60;41.90;;;;;;4957810;28;20034;-73
2022/04/23 11:57:05;;;;;;;4.63;4.22;;;23.30;41.30;;;;;;4958982;28;20529;-78
2022/04/23 11:59:44;;;;;;;4.40;4.00;;;23.00;41.70;;;;;;4958844;28;20480;-78
2022/04/23 12:02:30;;;;;;;3.90;3.60;;;23.00;42.10;;;;;;4959919;28;20078;-75
2022/04/23 12:04:58;;;;;;;3.50;3.20;;;23.30;42.90;;;;;;4956438;28;20138;-76
2022/04/23 12:07:25;;;;;;;4.05;3.65;;;23.50;43.40;;;;;;4957956;28;20035;-76
2022/04/23 12:09:56;;;;;;;6.20;4.43;;;23.70;43.00;;;;;;4952814;28;20039;-75
2022/04/23 12:12:25;;;;;;;4.93;3.97;;;23.70;41.10;;;;;;4958130;28;20122;-76
2022/04/23 12:14:52;;;;;;;4.47;4.07;;;23.80;40.70;;;;;;4939735;28;20035;-76
2022/04/23 12:17:42;;;;;;;4.05;3.67;;;24.10;39.50;;;;;;4954169;28;20031;-76
2022/04/23 12:20:12;;;;;;;4.95;3.80;;;24.30;40.10;;;;;;4955246;28;20671;-76
2022/04/23 12:22:39;;;;;;;4.63;4.00;;;24.50;38.20;;;;;;4960506;28;20058;-76
2022/04/23 12:25:18;;;;;;;4.88;4.38;;;24.30;39.00;;;;;;4951613;28;20039;-72
2022/04/23 12:42:10;;;;;;;4.28;3.80;;;25.80;37.40;;;;;;4954730;28;20101;-78
2022/04/23 12:44:45;;;;;;;7.55;4.80;;;26.30;37.70;;;;;;4960180;28;20035;-71
2022/04/23 12:47:20;;;;;;;5.45;4.95;;;27.10;38.00;;;;;;4952536;28;20030;-74
2022/04/23 12:49:51;;;;;;;5.82;5.32;;;27.40;37.90;;;;;;4935796;28;20030;-73
2022/04/23 12:52:25;;;;;;;6.70;6.00;;;27.20;38.00;;;;;;4954901;28;20050;-72
2022/04/23 12:55:14;;;;;;;8.95;5.70;;;27.00;38.40;;;;;;4954445;28;20030;-71
2022/04/23 12:57:44;;;;;;;7.97;6.40;;;27.10;38.60;;;;;;4949444;28;20126;-75
2022/04/23 13:00:13;;;;;;;7.78;6.20;;;26.30;38.30;;;;;;4954166;28;20039;-71
2022/04/23 13:02:43;;;;;;;7.90;6.88;;;24.70;39.50;;;;;;4957975;28;20499;-71
2022/04/23 13:05:10;;;;;;;6.90;6.20;;;23.60;41.80;;;;;;4955146;28;20226;-72
2022/04/23 13:10:20;;;;;;;8.15;5.93;;;24.50;40.90;;;;;;4972303;28;20456;-72
2022/04/23 13:12:46;;;;;;;11.45;7.28;;;24.60;41.40;;;;;;4955104;28;20042;-73
2022/04/23 13:15:11;;;;;;;9.35;6.63;;;24.70;40.80;;;;;;4948519;28;20471;-71
2022/04/23 13:17:38;;;;;;;7.57;5.80;;;24.60;41.80;;;;;;4952414;28;20035;-73
2022/04/23 13:20:15;;;;;;;7.57;6.45;;;25.00;41.00;;;;;;4951483;28;20386;-72
2022/04/23 13:22:43;;;;;;;7.10;6.40;;;25.70;40.60;;;;;;4972218;28;20031;-72
2022/04/23 13:25:10;;;;;;;7.03;5.57;;;26.00;40.00;;;;;;4959247;28;20050;-75
2022/04/23 13:27:36;;;;;;;6.78;5.82;;;26.40;40.40;;;;;;4959723;28;20031;-73
2022/04/23 13:30:04;;;;;;;6.00;5.40;;;26.10;39.30;;;;;;4961868;28;20030;-75